createdAt,value
2023-06-30T00:02:08.063Z,5.30
2023-06-30T00:04:37.167Z,5.60
2023-06-30T00:07:06.170Z,5.77
2023-06-30T00:09:35.636Z,5.47
2023-06-30T00:12:04.030Z,11.63
2023-06-30T00:14:33.704Z,6.27
2023-06-30T00:17:01.962Z,6.63
2023-06-30T00:19:30.870Z,6.10
2023-06-30T00:21:59.016Z,6.50
2023-06-30T00:24:27.254Z,6.83
2023-06-30T00:26:55.392Z,6.67
2023-06-30T00:29:23.498Z,7.40
2023-06-30T00:31:51.720Z,7.10
2023-06-30T00:34:19.782Z,6.47
2023-06-30T00:36:47.635Z,6.77
2023-06-30T00:39:15.641Z,6.90
2023-06-30T00:41:44.137Z,7.23
2023-06-30T00:44:12.269Z,7.87
2023-06-30T00:46:41.550Z,8.03
2023-06-30T00:49:09.939Z,7.53
2023-06-30T00:51:37.770Z,8.73
2023-06-30T00:54:06.002Z,8.53
2023-06-30T00:56:34.230Z,9.17
2023-06-30T00:59:03.466Z,8.47
2023-06-30T01:01:48.670Z,8.40
2023-06-30T01:04:28.552Z,8.70
2023-06-30T01:07:24.495Z,8.43
2023-06-30T01:09:59.652Z,8.37
2023-06-30T01:12:28.069Z,8.63
2023-06-30T01:14:56.390Z,8.47
2023-06-30T01:17:26.510Z,8.67
2023-06-30T01:19:56.352Z,9.30
2023-06-30T01:22:27.796Z,8.90
2023-06-30T01:25:01.907Z,8.33
2023-06-30T01:27:30.058Z,9.20
2023-06-30T01:29:59.543Z,9.30
2023-06-30T01:32:27.814Z,9.07
2023-06-30T01:34:56.978Z,9.10
2023-06-30T01:37:25.066Z,9.40
2023-06-30T01:39:53.887Z,8.87
2023-06-30T01:42:22.045Z,9.77
2023-06-30T01:44:51.089Z,9.20
2023-06-30T01:47:19.389Z,9.63
2023-06-30T01:50:12.264Z,10.17
2023-06-30T01:52:39.972Z,9.87
2023-06-30T01:55:08.633Z,8.53
2023-06-30T01:57:37.249Z,8.97
2023-06-30T02:00:06.809Z,9.70
2023-06-30T02:02:35.720Z,9.20
2023-06-30T02:05:04.104Z,8.57
2023-06-30T02:07:32.912Z,8.17
2023-06-30T02:10:01.220Z,8.90
2023-06-30T02:12:29.896Z,8.73
2023-06-30T02:14:58.488Z,10.77
2023-06-30T02:17:34.491Z,10.23
2023-06-30T02:20:11.513Z,11.00
2023-06-30T02:22:40.458Z,9.80
2023-06-30T02:25:09.275Z,9.33
2023-06-30T02:27:38.202Z,8.63
2023-06-30T02:30:08.278Z,8.40
2023-06-30T02:32:39.754Z,7.90
2023-06-30T02:35:09.433Z,8.00
2023-06-30T02:37:38.596Z,7.30
2023-06-30T02:40:07.395Z,6.50
2023-06-30T02:42:36.136Z,7.10
2023-06-30T02:45:05.513Z,7.30
2023-06-30T02:47:34.199Z,6.40
2023-06-30T02:50:02.341Z,6.53
2023-06-30T02:52:30.643Z,5.90
2023-06-30T02:54:58.326Z,6.60
2023-06-30T02:57:26.916Z,5.85
2023-06-30T02:59:55.420Z,5.90
2023-06-30T03:02:23.879Z,6.88
2023-06-30T03:04:52.384Z,6.40
2023-06-30T03:07:20.651Z,6.07
2023-06-30T03:09:48.805Z,6.13
2023-06-30T03:12:17.522Z,5.75
2023-06-30T03:14:46.112Z,5.65
2023-06-30T03:17:14.174Z,5.97
2023-06-30T03:19:42.234Z,6.07
2023-06-30T03:22:10.719Z,6.15
2023-06-30T03:24:39.246Z,5.95
2023-06-30T03:27:09.680Z,5.88
2023-06-30T03:29:37.713Z,6.13
2023-06-30T03:32:06.309Z,6.25
2023-06-30T03:34:34.698Z,5.95
2023-06-30T03:37:02.852Z,8.85
2023-06-30T03:39:31.050Z,6.18
2023-06-30T03:41:58.827Z,6.70
2023-06-30T03:44:28.721Z,6.03
2023-06-30T03:46:57.608Z,7.07
2023-06-30T03:49:25.977Z,7.03
2023-06-30T03:51:54.118Z,6.60
2023-06-30T03:54:21.913Z,7.22
2023-06-30T03:56:50.796Z,7.68
2023-06-30T03:59:19.512Z,7.47
2023-06-30T04:01:47.886Z,7.35
2023-06-30T04:04:16.244Z,7.32
2023-06-30T04:06:45.728Z,7.50
2023-06-30T04:09:13.735Z,7.68
2023-06-30T04:11:41.930Z,7.43
2023-06-30T04:14:10.409Z,7.38
2023-06-30T04:16:38.641Z,7.10
2023-06-30T04:19:06.709Z,6.88
2023-06-30T04:21:34.821Z,6.50
2023-06-30T04:24:03.104Z,6.97
2023-06-30T04:26:32.998Z,7.78
2023-06-30T04:29:01.331Z,7.43
2023-06-30T04:31:30.972Z,8.00
2023-06-30T04:33:59.302Z,7.57
2023-06-30T04:36:30.484Z,7.30
2023-06-30T04:38:59.386Z,7.63
2023-06-30T04:41:27.809Z,7.78
2023-06-30T04:43:55.975Z,8.23
2023-06-30T04:46:26.785Z,7.90
2023-06-30T04:48:57.512Z,7.15
2023-06-30T04:51:25.933Z,6.88
2023-06-30T04:53:54.773Z,6.97
2023-06-30T04:56:24.439Z,8.40
2023-06-30T04:58:52.585Z,7.30
2023-06-30T05:01:20.289Z,6.47
2023-06-30T05:03:48.095Z,7.03
2023-06-30T05:06:16.334Z,6.63
2023-06-30T05:08:45.221Z,7.00
2023-06-30T05:11:13.715Z,6.65
2023-06-30T05:13:42.903Z,6.68
2023-06-30T05:16:13.632Z,6.47
2023-06-30T05:18:42.958Z,7.22
2023-06-30T05:21:11.172Z,6.88
2023-06-30T05:23:39.607Z,6.45
2023-06-30T05:26:08.751Z,6.30
2023-06-30T05:28:37.511Z,6.20
2023-06-30T05:31:06.347Z,6.05
2023-06-30T05:33:34.748Z,5.97
2023-06-30T05:36:02.463Z,6.10
2023-06-30T05:38:31.330Z,6.45
2023-06-30T05:41:00.529Z,6.18
2023-06-30T05:43:28.821Z,6.05
2023-06-30T05:45:56.520Z,6.47
2023-06-30T05:48:24.950Z,5.93
2023-06-30T05:50:53.168Z,6.00
2023-06-30T05:53:21.491Z,7.57
2023-06-30T05:55:49.535Z,8.02
2023-06-30T05:58:17.783Z,7.20
2023-06-30T06:00:46.591Z,5.43
2023-06-30T06:03:18.604Z,5.28
2023-06-30T06:05:48.157Z,5.97
2023-06-30T06:08:16.837Z,6.07
2023-06-30T06:10:48.133Z,5.65
2023-06-30T06:13:35.317Z,5.60
2023-06-30T06:16:04.516Z,6.07
2023-06-30T06:18:33.566Z,5.80
2023-06-30T06:21:04.539Z,6.90
2023-06-30T06:23:33.791Z,6.03
2023-06-30T06:26:03.632Z,5.25
2023-06-30T06:28:32.272Z,5.40
2023-06-30T06:31:00.530Z,5.38
2023-06-30T06:33:32.296Z,5.63
2023-06-30T06:36:00.498Z,5.97
2023-06-30T06:38:29.255Z,6.30
2023-06-30T06:40:57.225Z,7.57
2023-06-30T06:43:27.809Z,8.00
2023-06-30T06:45:56.060Z,5.93
2023-06-30T06:48:26.901Z,5.60
2023-06-30T06:51:03.605Z,5.85
2023-06-30T06:53:36.508Z,5.60
2023-06-30T06:56:16.957Z,5.55
2023-06-30T06:58:46.511Z,5.57
2023-06-30T07:01:14.849Z,5.30
2023-06-30T07:03:43.874Z,5.13
2023-06-30T07:06:12.297Z,5.28
2023-06-30T07:08:41.792Z,6.20
2023-06-30T07:11:12.507Z,5.60
2023-06-30T07:13:40.780Z,5.25
2023-06-30T07:16:09.857Z,5.25
2023-06-30T07:18:38.495Z,5.30
2023-06-30T07:21:07.482Z,6.15
2023-06-30T07:23:36.722Z,5.20
2023-06-30T07:26:04.856Z,5.65
2023-06-30T07:28:34.359Z,5.53
2023-06-30T07:31:02.528Z,5.15
2023-06-30T07:33:30.584Z,5.78
2023-06-30T07:35:58.746Z,5.55
2023-06-30T07:38:27.231Z,5.93
2023-06-30T07:40:57.128Z,5.22
2023-06-30T07:43:26.625Z,5.82
2023-06-30T07:45:56.923Z,5.70
2023-06-30T07:48:28.294Z,5.72
2023-06-30T07:51:08.418Z,5.90
2023-06-30T07:53:40.506Z,5.10
2023-06-30T07:56:08.918Z,5.35
2023-06-30T07:58:37.145Z,5.20
2023-06-30T08:01:05.408Z,5.13
2023-06-30T08:03:35.709Z,5.05
2023-06-30T08:06:04.418Z,4.55
2023-06-30T08:08:33.542Z,5.05
2023-06-30T08:11:01.822Z,4.63
2023-06-30T08:13:31.184Z,5.47
2023-06-30T08:15:59.416Z,5.38
2023-06-30T08:18:34.123Z,5.20
2023-06-30T08:21:04.184Z,4.53
2023-06-30T08:23:42.154Z,5.10
2023-06-30T08:26:10.471Z,5.30
2023-06-30T08:28:39.104Z,5.95
2023-06-30T08:31:07.067Z,7.65
2023-06-30T08:33:40.404Z,6.25
2023-06-30T08:36:11.144Z,4.95
2023-06-30T08:38:39.421Z,4.90
2023-06-30T08:41:08.205Z,5.03
2023-06-30T08:43:37.446Z,4.63
2023-06-30T08:46:05.708Z,7.22
2023-06-30T08:48:34.767Z,5.45
2023-06-30T08:51:05.067Z,4.57
2023-06-30T08:53:33.264Z,4.90
2023-06-30T08:56:02.000Z,4.65
2023-06-30T08:58:30.896Z,5.10
2023-06-30T09:00:59.690Z,4.88
2023-06-30T09:03:28.712Z,5.03
2023-06-30T09:05:59.203Z,5.90
2023-06-30T09:08:39.321Z,5.10
2023-06-30T09:11:09.725Z,5.10
2023-06-30T09:13:39.556Z,4.63
2023-06-30T09:16:11.986Z,17.70
2023-06-30T09:18:40.405Z,5.32
2023-06-30T09:21:08.784Z,5.10
2023-06-30T09:23:37.186Z,5.20
2023-06-30T09:26:14.371Z,5.38
2023-06-30T09:28:44.835Z,4.82
2023-06-30T09:31:16.449Z,4.70
2023-06-30T09:33:49.246Z,5.40
2023-06-30T09:36:19.311Z,5.60
2023-06-30T09:38:47.836Z,5.78
2023-06-30T09:41:24.424Z,6.32
2023-06-30T09:43:58.853Z,6.43
2023-06-30T09:46:29.622Z,5.82
2023-06-30T09:48:57.772Z,6.72
2023-06-30T09:51:26.629Z,6.28
2023-06-30T09:53:54.916Z,6.85
2023-06-30T09:56:23.706Z,6.32
2023-06-30T09:59:00.376Z,6.95
2023-06-30T10:01:28.578Z,6.28
2023-06-30T10:03:57.606Z,7.45
2023-06-30T10:06:26.554Z,10.75
2023-06-30T10:08:58.351Z,6.88
2023-06-30T10:11:27.735Z,6.40
2023-06-30T10:13:59.622Z,6.00
2023-06-30T10:16:27.874Z,6.68
2023-06-30T10:18:56.982Z,6.93
2023-06-30T10:21:25.254Z,6.13
2023-06-30T10:23:53.983Z,6.32
2023-06-30T10:26:24.741Z,6.28
2023-06-30T10:28:53.602Z,5.75
2023-06-30T10:31:22.341Z,6.15
2023-06-30T10:33:54.710Z,9.00
2023-06-30T10:36:25.024Z,5.50
2023-06-30T10:38:52.997Z,5.10
2023-06-30T10:41:23.806Z,5.38
2023-06-30T10:44:08.990Z,5.07
2023-06-30T10:46:47.735Z,5.25
2023-06-30T10:49:19.915Z,5.15
2023-06-30T10:51:52.739Z,8.15
2023-06-30T10:54:23.509Z,4.90
2023-06-30T10:56:52.377Z,5.05
2023-06-30T10:59:27.268Z,6.38
2023-06-30T11:02:20.093Z,5.45
2023-06-30T11:04:48.878Z,5.43
2023-06-30T11:07:29.230Z,5.30
2023-06-30T11:10:02.013Z,5.70
2023-06-30T11:12:55.082Z,5.72
2023-06-30T11:15:27.743Z,5.85
2023-06-30T11:17:57.471Z,5.40
2023-06-30T11:20:29.015Z,5.95
2023-06-30T11:23:05.789Z,6.07
2023-06-30T11:25:36.904Z,5.60
2023-06-30T11:28:06.233Z,5.35
2023-06-30T11:30:40.257Z,5.03
2023-06-30T11:33:09.439Z,5.22
2023-06-30T11:35:38.493Z,5.25
2023-06-30T11:38:09.595Z,5.78
2023-06-30T11:40:46.727Z,6.25
2023-06-30T11:43:15.699Z,5.63
2023-06-30T11:45:45.704Z,5.47
2023-06-30T11:48:14.296Z,6.00
2023-06-30T11:50:43.397Z,5.65
2023-06-30T11:53:11.793Z,6.00
2023-06-30T11:55:44.978Z,5.70
2023-06-30T11:58:13.315Z,5.60
2023-06-30T12:00:45.113Z,5.60
2023-06-30T12:03:17.360Z,5.65
2023-06-30T12:05:56.558Z,5.85
2023-06-30T12:08:27.872Z,6.05
2023-06-30T12:10:56.657Z,5.53
2023-06-30T12:13:30.882Z,5.80
2023-06-30T12:15:59.635Z,5.03
2023-06-30T12:18:55.031Z,5.57
2023-06-30T12:21:23.761Z,5.13
2023-06-30T12:23:52.397Z,5.35
2023-06-30T12:26:27.727Z,5.18
2023-06-30T12:29:04.328Z,5.50
2023-06-30T12:31:33.316Z,5.63
2023-06-30T12:34:01.770Z,6.10
2023-06-30T12:36:30.974Z,5.80
2023-06-30T12:39:01.597Z,5.25
2023-06-30T12:41:30.522Z,6.78
2023-06-30T12:44:02.799Z,5.50
2023-06-30T12:46:33.688Z,6.10
2023-06-30T12:49:01.534Z,6.10
2023-06-30T12:51:29.545Z,6.32
2023-06-30T12:53:57.969Z,6.03
2023-06-30T12:56:30.443Z,6.38
2023-06-30T12:58:58.929Z,6.00
2023-06-30T13:01:27.118Z,6.15
2023-06-30T13:03:55.101Z,6.00
2023-06-30T13:06:23.430Z,21.67
2023-06-30T13:08:52.107Z,6.70
2023-06-30T13:11:20.366Z,5.80
2023-06-30T13:13:48.799Z,5.72
2023-06-30T13:16:16.940Z,6.50
2023-06-30T13:18:44.949Z,6.80
2023-06-30T13:21:15.802Z,6.05
2023-06-30T13:23:44.519Z,5.75
2023-06-30T13:26:13.882Z,6.40
2023-06-30T13:28:42.252Z,5.65
2023-06-30T13:31:10.926Z,6.10
2023-06-30T13:33:39.454Z,6.40
2023-06-30T13:36:09.949Z,6.05
2023-06-30T13:38:38.710Z,5.90
2023-06-30T13:41:06.832Z,5.57
2023-06-30T13:43:35.413Z,5.50
2023-06-30T13:46:10.088Z,5.93
2023-06-30T13:48:39.857Z,5.72
2023-06-30T13:51:08.445Z,7.18
2023-06-30T13:53:40.386Z,5.97
2023-06-30T13:56:08.657Z,5.40
2023-06-30T13:58:36.636Z,6.07
2023-06-30T14:01:04.921Z,8.68
2023-06-30T14:03:33.601Z,6.90
2023-06-30T14:06:02.287Z,6.25
2023-06-30T14:08:31.075Z,6.60
2023-06-30T14:11:00.118Z,6.93
2023-06-30T14:13:29.236Z,7.20
2023-06-30T14:16:00.127Z,7.47
2023-06-30T14:21:12.111Z,7.35
2023-06-30T14:23:40.484Z,6.82
2023-06-30T14:26:09.047Z,6.90
2023-06-30T14:28:37.623Z,6.68
2023-06-30T14:31:06.621Z,7.60
2023-06-30T14:33:36.630Z,6.82
2023-06-30T14:36:05.062Z,6.93
2023-06-30T14:38:33.213Z,8.40
2023-06-30T14:41:01.424Z,7.65
2023-06-30T14:43:29.841Z,6.45
2023-06-30T14:45:58.050Z,6.22
2023-06-30T14:48:26.639Z,6.60
2023-06-30T14:50:55.114Z,5.90
2023-06-30T14:53:23.498Z,7.13
2023-06-30T14:55:51.713Z,6.90
2023-06-30T14:58:20.023Z,8.52
2023-06-30T15:00:48.557Z,8.90
2023-06-30T15:03:18.115Z,8.32
2023-06-30T15:05:46.818Z,8.57
2023-06-30T15:08:15.429Z,9.05
2023-06-30T15:10:46.205Z,9.30
2023-06-30T15:13:17.131Z,22.70
2023-06-30T15:15:46.709Z,8.48
2023-06-30T15:18:15.344Z,8.55
2023-06-30T15:20:43.750Z,7.70
2023-06-30T15:23:18.185Z,7.40
2023-06-30T15:25:45.993Z,6.90
2023-06-30T15:28:14.497Z,6.20
2023-06-30T15:30:44.238Z,6.05
2023-06-30T15:33:12.484Z,6.00
2023-06-30T15:35:41.331Z,6.03
2023-06-30T15:38:10.079Z,5.82
2023-06-30T15:40:38.355Z,5.63
2023-06-30T15:43:06.482Z,5.32
2023-06-30T15:45:35.076Z,9.70
2023-06-30T15:48:03.716Z,7.03
2023-06-30T15:50:33.160Z,5.50
2023-06-30T15:53:01.548Z,5.60
2023-06-30T15:55:29.996Z,5.43
2023-06-30T15:58:00.207Z,5.07
2023-06-30T16:00:28.807Z,5.15
2023-06-30T16:02:57.037Z,5.40
2023-06-30T16:05:25.756Z,5.57
2023-06-30T16:07:58.027Z,5.30
2023-06-30T16:10:26.518Z,5.40
2023-06-30T16:13:19.564Z,5.43
2023-06-30T16:15:48.179Z,5.25
2023-06-30T16:18:18.839Z,5.13
2023-06-30T16:20:47.442Z,4.95
2023-06-30T16:23:15.605Z,5.25
2023-06-30T16:25:45.620Z,5.78
2023-06-30T16:28:14.863Z,6.47
2023-06-30T16:30:44.170Z,5.15
2023-06-30T16:33:12.532Z,4.55
2023-06-30T16:35:41.182Z,4.80
2023-06-30T16:38:09.824Z,5.15
2023-06-30T16:40:38.380Z,5.95
2023-06-30T16:43:07.718Z,5.85
2023-06-30T16:45:36.734Z,6.27
2023-06-30T16:48:05.739Z,7.17
2023-06-30T16:50:34.492Z,7.33
2023-06-30T16:53:02.979Z,8.07
2023-06-30T16:55:30.961Z,10.60
2023-06-30T16:58:02.686Z,9.70
2023-06-30T17:00:30.495Z,9.80
2023-06-30T17:02:58.745Z,11.67
2023-06-30T17:05:27.006Z,9.90
2023-06-30T17:07:55.705Z,14.83
2023-06-30T17:10:23.825Z,12.10
2023-06-30T17:12:52.003Z,11.70
2023-06-30T17:15:20.454Z,14.00
2023-06-30T17:17:49.058Z,12.83
2023-06-30T17:20:17.452Z,11.03
2023-06-30T17:22:45.850Z,12.63
2023-06-30T17:25:14.107Z,10.33
2023-06-30T17:27:42.516Z,11.53
2023-06-30T17:30:11.804Z,11.70
2023-06-30T17:32:41.335Z,12.27
2023-06-30T17:35:09.959Z,11.17
2023-06-30T17:37:38.032Z,11.53
2023-06-30T17:40:06.984Z,11.77
2023-06-30T17:42:35.113Z,11.90
2023-06-30T17:45:05.034Z,10.53
2023-06-30T17:47:33.450Z,9.93
2023-06-30T17:50:02.697Z,10.23
2023-06-30T17:52:31.538Z,9.33
2023-06-30T17:54:59.844Z,10.10
2023-06-30T17:57:27.709Z,11.60
2023-06-30T17:59:55.459Z,9.50
2023-06-30T18:02:23.772Z,8.60
2023-06-30T18:04:51.983Z,7.90
2023-06-30T18:07:20.086Z,8.70
2023-06-30T18:09:49.793Z,9.53
2023-06-30T18:12:18.147Z,9.40
2023-06-30T18:14:47.182Z,9.23
2023-06-30T18:17:16.714Z,7.97
2023-06-30T18:19:44.959Z,8.30
2023-06-30T18:22:14.761Z,8.23
2023-06-30T18:24:43.118Z,7.90
2023-06-30T18:27:11.581Z,8.37
2023-06-30T18:29:40.823Z,9.00
2023-06-30T18:32:08.797Z,8.97
2023-06-30T18:34:37.231Z,9.80
2023-06-30T18:37:08.969Z,10.10
2023-06-30T18:39:37.154Z,10.17
2023-06-30T18:42:05.686Z,9.37
2023-06-30T18:44:36.386Z,10.00
2023-06-30T18:47:06.860Z,10.27
2023-06-30T18:49:35.081Z,16.67
2023-06-30T18:52:03.524Z,8.17
2023-06-30T18:54:32.328Z,8.40
2023-06-30T18:57:00.360Z,7.77
2023-06-30T18:59:28.717Z,7.87
2023-06-30T19:01:56.723Z,18.17
2023-06-30T19:04:25.266Z,17.87
2023-06-30T19:06:53.980Z,11.33
2023-06-30T19:09:22.256Z,11.83
2023-06-30T19:11:50.607Z,11.77
2023-06-30T19:14:23.050Z,10.60
2023-06-30T19:16:51.002Z,10.40
2023-06-30T19:19:19.416Z,10.47
2023-06-30T19:21:47.572Z,9.77
2023-06-30T19:24:16.522Z,8.63
2023-06-30T19:26:45.824Z,9.30
2023-06-30T19:29:14.063Z,8.47
2023-06-30T19:31:44.228Z,9.10
2023-06-30T19:34:12.604Z,8.10
2023-06-30T19:36:40.428Z,8.27
2023-06-30T19:39:09.397Z,8.83
2023-06-30T19:41:37.649Z,9.60
2023-06-30T19:44:05.966Z,10.40
2023-06-30T19:46:35.671Z,10.33
2023-06-30T19:49:03.666Z,11.00
2023-06-30T19:51:31.800Z,10.40
2023-06-30T19:54:00.085Z,11.33
2023-06-30T19:56:27.907Z,10.53
2023-06-30T19:58:56.561Z,11.47
2023-06-30T20:01:27.960Z,11.20
2023-06-30T20:03:56.109Z,12.20
2023-06-30T20:06:24.373Z,13.97
2023-06-30T20:08:53.134Z,11.77
2023-06-30T20:11:21.434Z,11.90
2023-06-30T20:13:49.871Z,10.40
2023-06-30T20:16:17.926Z,10.30
2023-06-30T20:19:04.636Z,10.03
2023-06-30T20:21:36.070Z,10.23
2023-06-30T20:24:05.257Z,10.13
2023-06-30T20:26:36.660Z,10.57
2023-06-30T20:29:05.185Z,11.80
2023-06-30T20:31:33.424Z,12.43
2023-06-30T20:34:02.029Z,12.73
2023-06-30T20:36:30.959Z,12.33
2023-06-30T20:39:01.335Z,17.57
2023-06-30T20:41:29.729Z,13.50
2023-06-30T20:43:58.148Z,14.10
2023-06-30T20:46:26.257Z,12.63
2023-06-30T20:48:54.137Z,12.40
2023-06-30T20:51:22.154Z,10.83
2023-06-30T20:53:49.944Z,11.20
2023-06-30T20:56:17.914Z,14.83
2023-06-30T20:58:46.373Z,12.83
2023-06-30T21:01:14.469Z,10.10
2023-06-30T21:03:43.672Z,9.83
2023-06-30T21:06:11.808Z,8.83
2023-06-30T21:08:42.841Z,8.73
2023-06-30T21:11:11.212Z,8.40
2023-06-30T21:13:39.878Z,8.10
2023-06-30T21:16:09.420Z,8.23
2023-06-30T21:18:38.225Z,8.80
2023-06-30T21:21:06.423Z,10.03
2023-06-30T21:23:34.680Z,9.10
2023-06-30T21:26:02.853Z,9.27
2023-06-30T21:28:31.561Z,8.13
2023-06-30T21:31:00.016Z,8.40
2023-06-30T21:33:28.650Z,9.37
2023-06-30T21:35:56.889Z,9.93
2023-06-30T21:38:25.731Z,9.37
2023-06-30T21:40:53.642Z,9.03
2023-06-30T21:43:22.007Z,8.03
2023-06-30T21:45:50.237Z,7.60
2023-06-30T21:48:18.514Z,7.60
2023-06-30T21:50:46.766Z,6.97
2023-06-30T21:53:15.019Z,6.83
2023-06-30T21:55:43.115Z,7.10
2023-06-30T21:58:18.934Z,7.30
2023-06-30T22:00:55.886Z,6.73
2023-06-30T22:03:24.528Z,6.70
2023-06-30T22:05:53.495Z,6.47
2023-06-30T22:08:22.185Z,7.03
2023-06-30T22:10:50.791Z,6.63
2023-06-30T22:13:19.642Z,6.27
2023-06-30T22:15:47.820Z,6.00
2023-06-30T22:18:16.334Z,7.77
2023-06-30T22:20:44.654Z,8.53
2023-06-30T22:23:13.107Z,8.20
2023-06-30T22:25:41.336Z,10.57
2023-06-30T22:28:09.373Z,11.43
2023-06-30T22:30:37.088Z,10.40
2023-06-30T22:33:05.521Z,11.03
2023-06-30T22:35:44.663Z,11.50
2023-06-30T22:38:12.871Z,11.20
2023-06-30T22:40:40.637Z,11.40
2023-06-30T22:43:08.958Z,11.07
2023-06-30T22:45:37.347Z,11.23
2023-06-30T22:48:05.439Z,10.83
2023-06-30T22:50:39.420Z,10.33
2023-06-30T22:53:07.593Z,9.90
2023-06-30T22:55:35.999Z,9.90
2023-06-30T22:58:07.592Z,10.37
2023-06-30T23:00:37.153Z,11.00
2023-06-30T23:03:05.823Z,9.27
2023-06-30T23:05:34.024Z,10.33
2023-06-30T23:08:02.202Z,11.87
2023-06-30T23:10:30.510Z,9.90
2023-06-30T23:12:58.720Z,9.10
2023-06-30T23:15:26.487Z,8.80
2023-06-30T23:17:55.684Z,9.10
2023-06-30T23:20:25.914Z,8.87
2023-06-30T23:22:54.727Z,7.90
2023-06-30T23:25:24.457Z,7.70
2023-06-30T23:27:55.878Z,8.10
2023-06-30T23:30:27.287Z,8.40
2023-06-30T23:32:58.748Z,9.00
2023-06-30T23:35:27.519Z,8.97
2023-06-30T23:37:56.103Z,8.20
2023-06-30T23:40:24.549Z,8.87
2023-06-30T23:42:52.430Z,8.50
2023-06-30T23:45:22.509Z,8.50
2023-06-30T23:47:50.786Z,8.03
2023-06-30T23:50:19.031Z,9.40
2023-06-30T23:52:47.428Z,8.93
2023-06-30T23:55:15.605Z,8.13
2023-06-30T23:57:45.119Z,8.63
